sensor_id;sensor_type;location;lat;lon;timestamp;temperature;humidity
15819;DHT22;8010;53.986;12.106;2023-04-24T00:02:07;11.70;99.90
15819;DHT22;8010;53.986;12.106;2023-04-24T00:04:36;11.60;99.90
15819;DHT22;8010;53.986;12.106;2023-04-24T00:07:06;12.70;99.90
15819;DHT22;8010;53.986;12.106;2023-04-24T00:09:32;11.60;99.90
15819;DHT22;8010;53.986;12.106;2023-04-24T00:11:58;11.60;99.90
15819;DHT22;8010;53.986;12.106;2023-04-24T00:14:24;11.60;99.90
15819;DHT22;8010;53.986;12.106;2023-04-24T00:16:49;11.50;99.90
15819;DHT22;8010;53.986;12.106;2023-04-24T00:19:15;11.50;99.90
15819;DHT22;8010;53.986;12.106;2023-04-24T00:21:41;11.50;99.90
15819;DHT22;8010;53.986;12.106;2023-04-24T00:24:07;11.50;99.90
15819;DHT22;8010;53.986;12.106;2023-04-24T00:26:34;11.50;99.90
15819;DHT22;8010;53.986;12.106;2023-04-24T00:29:00;11.40;99.90
15819;DHT22;8010;53.986;12.106;2023-04-24T00:31:25;11.40;99.90
15819;DHT22;8010;53.986;12.106;2023-04-24T00:33:51;11.40;99.90
15819;DHT22;8010;53.986;12.106;2023-04-24T00:36:16;11.40;99.90
15819;DHT22;8010;53.986;12.106;2023-04-24T00:38:44;11.30;99.90
15819;DHT22;8010;53.986;12.106;2023-04-24T00:41:10;11.30;99.90
15819;DHT22;8010;53.986;12.106;2023-04-24T00:43:36;11.30;99.90
15819;DHT22;8010;53.986;12.106;2023-04-24T00:46:01;11.20;99.90
15819;DHT22;8010;53.986;12.106;2023-04-24T00:48:27;11.20;99.90
15819;DHT22;8010;53.986;12.106;2023-04-24T00:50:53;11.20;99.90
15819;DHT22;8010;53.986;12.106;2023-04-24T00:53:19;11.20;99.90
15819;DHT22;8010;53.986;12.106;2023-04-24T00:55:45;11.20;99.90
15819;DHT22;8010;53.986;12.106;2023-04-24T00:58:11;11.10;99.90
15819;DHT22;8010;53.986;12.106;2023-04-24T01:00:36;11.10;99.90
15819;DHT22;8010;53.986;12.106;2023-04-24T01:03:04;11.10;99.90
15819;DHT22;8010;53.986;12.106;2023-04-24T01:05:30;11.00;99.90
15819;DHT22;8010;53.986;12.106;2023-04-24T01:07:56;11.00;99.90
15819;DHT22;8010;53.986;12.106;2023-04-24T01:10:23;10.90;99.90
15819;DHT22;8010;53.986;12.106;2023-04-24T01:12:50;10.80;99.90
15819;DHT22;8010;53.986;12.106;2023-04-24T01:15:15;10.70;99.90
15819;DHT22;8010;53.986;12.106;2023-04-24T01:17:41;10.70;99.90
15819;DHT22;8010;53.986;12.106;2023-04-24T01:20:07;10.70;99.90
15819;DHT22;8010;53.986;12.106;2023-04-24T01:22:34;10.70;99.90
15819;DHT22;8010;53.986;12.106;2023-04-24T01:24:59;10.70;99.90
15819;DHT22;8010;53.986;12.106;2023-04-24T01:27:25;10.80;99.90
15819;DHT22;8010;53.986;12.106;2023-04-24T01:29:51;10.70;99.90
15819;DHT22;8010;53.986;12.106;2023-04-24T01:32:17;10.80;99.90
15819;DHT22;8010;53.986;12.106;2023-04-24T01:34:44;10.80;99.90
15819;DHT22;8010;53.986;12.106;2023-04-24T01:37:10;10.80;99.90
15819;DHT22;8010;53.986;12.106;2023-04-24T01:39:35;10.80;99.90
15819;DHT22;8010;53.986;12.106;2023-04-24T01:42:01;10.90;99.90
15819;DHT22;8010;53.986;12.106;2023-04-24T01:44:28;10.90;99.90
15819;DHT22;8010;53.986;12.106;2023-04-24T01:46:54;11.00;99.90
15819;DHT22;8010;53.986;12.106;2023-04-24T01:49:20;11.00;99.90
15819;DHT22;8010;53.986;12.106;2023-04-24T01:51:46;11.10;99.90
15819;DHT22;8010;53.986;12.106;2023-04-24T01:54:12;11.10;99.90
15819;DHT22;8010;53.986;12.106;2023-04-24T01:56:40;11.20;99.90
15819;DHT22;8010;53.986;12.106;2023-04-24T01:59:07;11.20;99.90
15819;DHT22;8010;53.986;12.106;2023-04-24T02:01:35;11.20;99.90
15819;DHT22;8010;53.986;12.106;2023-04-24T02:04:07;11.20;99.90
15819;DHT22;8010;53.986;12.106;2023-04-24T02:06:33;11.20;99.90
15819;DHT22;8010;53.986;12.106;2023-04-24T02:08:59;11.20;99.90
15819;DHT22;8010;53.986;12.106;2023-04-24T02:11:25;11.20;99.90
15819;DHT22;8010;53.986;12.106;2023-04-24T02:13:51;11.20;99.90
15819;DHT22;8010;53.986;12.106;2023-04-24T02:16:17;11.30;99.90
15819;DHT22;8010;53.986;12.106;2023-04-24T02:18:43;11.30;99.90
15819;DHT22;8010;53.986;12.106;2023-04-24T02:21:09;11.30;99.90
15819;DHT22;8010;53.986;12.106;2023-04-24T02:23:34;11.30;99.90
15819;DHT22;8010;53.986;12.106;2023-04-24T02:26:00;11.30;99.90
15819;DHT22;8010;53.986;12.106;2023-04-24T02:28:25;11.30;99.90
15819;DHT22;8010;53.986;12.106;2023-04-24T02:30:51;11.40;99.90
15819;DHT22;8010;53.986;12.106;2023-04-24T02:33:16;11.40;99.90
15819;DHT22;8010;53.986;12.106;2023-04-24T02:35:42;11.40;99.90
15819;DHT22;8010;53.986;12.106;2023-04-24T02:38:07;11.40;99.90
15819;DHT22;8010;53.986;12.106;2023-04-24T02:40:33;11.40;99.90
15819;DHT22;8010;53.986;12.106;2023-04-24T02:42:59;11.40;99.90
15819;DHT22;8010;53.986;12.106;2023-04-24T02:45:24;11.50;99.90
15819;DHT22;8010;53.986;12.106;2023-04-24T02:47:50;11.50;99.90
15819;DHT22;8010;53.986;12.106;2023-04-24T02:50:15;11.40;99.90
15819;DHT22;8010;53.986;12.106;2023-04-24T02:52:41;11.50;99.90
15819;DHT22;8010;53.986;12.106;2023-04-24T02:55:07;11.60;99.90
15819;DHT22;8010;53.986;12.106;2023-04-24T02:57:33;11.60;99.90
15819;DHT22;8010;53.986;12.106;2023-04-24T02:59:59;11.60;99.90
15819;DHT22;8010;53.986;12.106;2023-04-24T03:02:25;11.60;99.90
15819;DHT22;8010;53.986;12.106;2023-04-24T03:04:50;11.50;99.90
15819;DHT22;8010;53.986;12.106;2023-04-24T03:07:16;11.50;99.90
15819;DHT22;8010;53.986;12.106;2023-04-24T03:09:41;11.60;99.90
15819;DHT22;8010;53.986;12.106;2023-04-24T03:12:07;11.40;99.90
15819;DHT22;8010;53.986;12.106;2023-04-24T03:14:32;11.40;99.90
15819;DHT22;8010;53.986;12.106;2023-04-24T03:16:58;11.40;99.90
15819;DHT22;8010;53.986;12.106;2023-04-24T03:19:24;11.30;99.90
15819;DHT22;8010;53.986;12.106;2023-04-24T03:21:50;11.30;99.90
15819;DHT22;8010;53.986;12.106;2023-04-24T03:24:15;11.40;99.90
15819;DHT22;8010;53.986;12.106;2023-04-24T03:26:41;11.40;99.90
15819;DHT22;8010;53.986;12.106;2023-04-24T03:29:07;11.40;99.90
15819;DHT22;8010;53.986;12.106;2023-04-24T03:31:32;11.40;99.90
15819;DHT22;8010;53.986;12.106;2023-04-24T03:33:58;11.40;99.90
15819;DHT22;8010;53.986;12.106;2023-04-24T03:36:23;11.40;99.90
15819;DHT22;8010;53.986;12.106;2023-04-24T03:38:49;11.30;99.90
15819;DHT22;8010;53.986;12.106;2023-04-24T03:41:14;11.30;99.90
15819;DHT22;8010;53.986;12.106;2023-04-24T03:43:40;11.30;99.90
15819;DHT22;8010;53.986;12.106;2023-04-24T03:46:05;11.20;99.90
15819;DHT22;8010;53.986;12.106;2023-04-24T03:48:32;11.20;99.90
15819;DHT22;8010;53.986;12.106;2023-04-24T03:50:57;11.20;99.90
15819;DHT22;8010;53.986;12.106;2023-04-24T03:53:23;11.20;99.90
15819;DHT22;8010;53.986;12.106;2023-04-24T03:55:48;11.20;99.90
15819;DHT22;8010;53.986;12.106;2023-04-24T03:58:14;11.10;99.90
15819;DHT22;8010;53.986;12.106;2023-04-24T04:00:40;11.10;99.90
15819;DHT22;8010;53.986;12.106;2023-04-24T04:03:06;11.20;99.90
15819;DHT22;8010;53.986;12.106;2023-04-24T04:05:31;11.10;99.90
15819;DHT22;8010;53.986;12.106;2023-04-24T04:07:57;11.10;99.90
15819;DHT22;8010;53.986;12.106;2023-04-24T04:10:23;11.10;99.90
15819;DHT22;8010;53.986;12.106;2023-04-24T04:12:48;11.10;99.90
15819;DHT22;8010;53.986;12.106;2023-04-24T04:15:14;11.10;99.90
15819;DHT22;8010;53.986;12.106;2023-04-24T04:17:39;11.10;99.90
15819;DHT22;8010;53.986;12.106;2023-04-24T04:20:05;11.10;99.90
15819;DHT22;8010;53.986;12.106;2023-04-24T04:22:34;11.10;99.90
15819;DHT22;8010;53.986;12.106;2023-04-24T04:25:00;11.10;99.90
15819;DHT22;8010;53.986;12.106;2023-04-24T04:27:25;11.10;99.90
15819;DHT22;8010;53.986;12.106;2023-04-24T04:29:51;11.10;99.90
15819;DHT22;8010;53.986;12.106;2023-04-24T04:32:18;11.10;99.90
15819;DHT22;8010;53.986;12.106;2023-04-24T04:34:43;11.10;99.90
15819;DHT22;8010;53.986;12.106;2023-04-24T04:37:10;11.10;99.90
15819;DHT22;8010;53.986;12.106;2023-04-24T04:39:38;11.10;99.90
15819;DHT22;8010;53.986;12.106;2023-04-24T04:42:03;11.00;99.90
15819;DHT22;8010;53.986;12.106;2023-04-24T04:44:29;11.10;99.90
15819;DHT22;8010;53.986;12.106;2023-04-24T04:46:56;11.10;99.90
15819;DHT22;8010;53.986;12.106;2023-04-24T04:49:22;11.10;99.90
15819;DHT22;8010;53.986;12.106;2023-04-24T04:51:49;11.20;99.90
15819;DHT22;8010;53.986;12.106;2023-04-24T04:54:16;11.20;99.90
15819;DHT22;8010;53.986;12.106;2023-04-24T04:56:41;11.20;99.90
15819;DHT22;8010;53.986;12.106;2023-04-24T04:59:07;11.20;99.90
15819;DHT22;8010;53.986;12.106;2023-04-24T05:01:32;11.20;99.90
15819;DHT22;8010;53.986;12.106;2023-04-24T05:03:58;11.20;99.90
15819;DHT22;8010;53.986;12.106;2023-04-24T05:06:23;11.20;99.90
15819;DHT22;8010;53.986;12.106;2023-04-24T05:08:49;11.30;99.90
15819;DHT22;8010;53.986;12.106;2023-04-24T05:11:16;12.80;99.90
15819;DHT22;8010;53.986;12.106;2023-04-24T05:13:41;11.30;99.90
15819;DHT22;8010;53.986;12.106;2023-04-24T05:16:07;11.40;99.90
15819;DHT22;8010;53.986;12.106;2023-04-24T05:18:33;11.40;99.90
15819;DHT22;8010;53.986;12.106;2023-04-24T05:20:58;11.40;99.90
15819;DHT22;8010;53.986;12.106;2023-04-24T05:23:24;11.40;99.90
15819;DHT22;8010;53.986;12.106;2023-04-24T05:25:49;12.10;99.90
15819;DHT22;8010;53.986;12.106;2023-04-24T05:28:15;11.50;99.90
15819;DHT22;8010;53.986;12.106;2023-04-24T05:30:40;11.40;99.90
15819;DHT22;8010;53.986;12.106;2023-04-24T05:33:06;11.50;99.90
15819;DHT22;8010;53.986;12.106;2023-04-24T05:35:32;11.50;99.90
15819;DHT22;8010;53.986;12.106;2023-04-24T05:37:57;11.60;99.90
15819;DHT22;8010;53.986;12.106;2023-04-24T05:40:23;11.60;99.90
15819;DHT22;8010;53.986;12.106;2023-04-24T05:42:48;11.70;99.90
15819;DHT22;8010;53.986;12.106;2023-04-24T05:45:14;11.70;99.90
15819;DHT22;8010;53.986;12.106;2023-04-24T05:47:44;11.90;99.90
15819;DHT22;8010;53.986;12.106;2023-04-24T05:50:11;11.90;99.90
15819;DHT22;8010;53.986;12.106;2023-04-24T05:52:36;12.00;99.90
15819;DHT22;8010;53.986;12.106;2023-04-24T05:55:02;12.10;99.90
15819;DHT22;8010;53.986;12.106;2023-04-24T05:57:28;12.20;99.90
15819;DHT22;8010;53.986;12.106;2023-04-24T05:59:53;12.30;99.90
15819;DHT22;8010;53.986;12.106;2023-04-24T06:02:18;12.40;99.90
15819;DHT22;8010;53.986;12.106;2023-04-24T06:04:45;12.50;99.90
15819;DHT22;8010;53.986;12.106;2023-04-24T06:07:13;12.60;99.90
15819;DHT22;8010;53.986;12.106;2023-04-24T06:09:39;12.60;99.90
15819;DHT22;8010;53.986;12.106;2023-04-24T06:12:04;12.70;99.90
15819;DHT22;8010;53.986;12.106;2023-04-24T06:14:30;12.80;99.90
15819;DHT22;8010;53.986;12.106;2023-04-24T06:16:55;12.90;99.90
15819;DHT22;8010;53.986;12.106;2023-04-24T06:19:21;12.90;99.90
15819;DHT22;8010;53.986;12.106;2023-04-24T06:21:46;13.00;99.90
15819;DHT22;8010;53.986;12.106;2023-04-24T06:24:14;13.10;99.90
15819;DHT22;8010;53.986;12.106;2023-04-24T06:26:39;13.10;99.90
15819;DHT22;8010;53.986;12.106;2023-04-24T06:29:06;13.10;99.90
15819;DHT22;8010;53.986;12.106;2023-04-24T06:31:32;13.20;99.90
15819;DHT22;8010;53.986;12.106;2023-04-24T06:34:02;13.30;99.90
15819;DHT22;8010;53.986;12.106;2023-04-24T06:36:28;13.40;99.90
15819;DHT22;8010;53.986;12.106;2023-04-24T06:38:54;13.40;99.90
15819;DHT22;8010;53.986;12.106;2023-04-24T06:41:19;13.40;99.90
15819;DHT22;8010;53.986;12.106;2023-04-24T06:43:45;13.40;99.90
15819;DHT22;8010;53.986;12.106;2023-04-24T06:46:11;13.40;99.90
15819;DHT22;8010;53.986;12.106;2023-04-24T06:48:37;13.50;99.90
15819;DHT22;8010;53.986;12.106;2023-04-24T06:51:02;13.50;99.90
15819;DHT22;8010;53.986;12.106;2023-04-24T06:53:28;13.50;99.90
15819;DHT22;8010;53.986;12.106;2023-04-24T06:55:54;13.50;99.90
15819;DHT22;8010;53.986;12.106;2023-04-24T06:58:20;13.50;99.90
15819;DHT22;8010;53.986;12.106;2023-04-24T07:00:45;13.50;99.90
15819;DHT22;8010;53.986;12.106;2023-04-24T07:03:11;13.50;99.90
15819;DHT22;8010;53.986;12.106;2023-04-24T07:05:36;13.40;99.90
15819;DHT22;8010;53.986;12.106;2023-04-24T07:08:03;13.50;99.90
15819;DHT22;8010;53.986;12.106;2023-04-24T07:10:29;13.40;99.90
15819;DHT22;8010;53.986;12.106;2023-04-24T07:12:55;13.40;99.90
15819;DHT22;8010;53.986;12.106;2023-04-24T07:15:24;13.50;99.90
15819;DHT22;8010;53.986;12.106;2023-04-24T07:17:49;14.00;99.90
15819;DHT22;8010;53.986;12.106;2023-04-24T07:20:15;13.50;99.90
15819;DHT22;8010;53.986;12.106;2023-04-24T07:22:41;13.50;99.90
15819;DHT22;8010;53.986;12.106;2023-04-24T07:25:07;13.60;99.90
15819;DHT22;8010;53.986;12.106;2023-04-24T07:27:34;13.60;99.90
15819;DHT22;8010;53.986;12.106;2023-04-24T07:30:00;13.70;99.90
15819;DHT22;8010;53.986;12.106;2023-04-24T07:32:26;13.70;99.90
15819;DHT22;8010;53.986;12.106;2023-04-24T07:34:51;13.70;99.90
15819;DHT22;8010;53.986;12.106;2023-04-24T07:37:17;13.80;99.90
15819;DHT22;8010;53.986;12.106;2023-04-24T07:39:42;13.90;99.90
15819;DHT22;8010;53.986;12.106;2023-04-24T07:42:08;14.00;99.90
15819;DHT22;8010;53.986;12.106;2023-04-24T07:44:33;14.00;99.90
15819;DHT22;8010;53.986;12.106;2023-04-24T07:46:59;14.20;99.90
15819;DHT22;8010;53.986;12.106;2023-04-24T07:49:25;14.20;99.90
15819;DHT22;8010;53.986;12.106;2023-04-24T07:51:50;14.20;99.90
15819;DHT22;8010;53.986;12.106;2023-04-24T07:54:16;14.20;99.90
15819;DHT22;8010;53.986;12.106;2023-04-24T07:56:43;14.20;99.90
15819;DHT22;8010;53.986;12.106;2023-04-24T07:59:09;14.20;99.90
15819;DHT22;8010;53.986;12.106;2023-04-24T08:01:35;14.30;99.90
15819;DHT22;8010;53.986;12.106;2023-04-24T08:04:01;14.50;99.90
15819;DHT22;8010;53.986;12.106;2023-04-24T08:06:27;14.60;99.90
15819;DHT22;8010;53.986;12.106;2023-04-24T08:08:57;14.50;99.90
15819;DHT22;8010;53.986;12.106;2023-04-24T08:11:23;14.40;99.90
15819;DHT22;8010;53.986;12.106;2023-04-24T08:13:49;14.20;99.90
15819;DHT22;8010;53.986;12.106;2023-04-24T08:16:14;14.10;99.90
15819;DHT22;8010;53.986;12.106;2023-04-24T08:18:40;14.00;99.90
15819;DHT22;8010;53.986;12.106;2023-04-24T08:21:06;13.90;99.90
15819;DHT22;8010;53.986;12.106;2023-04-24T08:23:31;13.90;99.90
15819;DHT22;8010;53.986;12.106;2023-04-24T08:25:57;13.80;99.90
15819;DHT22;8010;53.986;12.106;2023-04-24T08:28:23;13.90;99.90
15819;DHT22;8010;53.986;12.106;2023-04-24T08:30:48;13.90;99.90
15819;DHT22;8010;53.986;12.106;2023-04-24T08:33:23;14.00;99.90
15819;DHT22;8010;53.986;12.106;2023-04-24T08:35:48;14.00;99.90
15819;DHT22;8010;53.986;12.106;2023-04-24T08:38:15;14.10;99.90
15819;DHT22;8010;53.986;12.106;2023-04-24T08:40:41;14.10;99.90
15819;DHT22;8010;53.986;12.106;2023-04-24T08:43:07;14.10;99.90
15819;DHT22;8010;53.986;12.106;2023-04-24T08:45:33;14.10;99.90
15819;DHT22;8010;53.986;12.106;2023-04-24T08:47:58;14.10;99.90
15819;DHT22;8010;53.986;12.106;2023-04-24T08:50:25;14.10;99.90
15819;DHT22;8010;53.986;12.106;2023-04-24T08:52:52;14.20;99.90
15819;DHT22;8010;53.986;12.106;2023-04-24T08:55:20;14.30;99.90
15819;DHT22;8010;53.986;12.106;2023-04-24T08:57:51;14.40;99.90
15819;DHT22;8010;53.986;12.106;2023-04-24T09:00:19;14.40;99.90
15819;DHT22;8010;53.986;12.106;2023-04-24T09:02:45;14.40;99.90
15819;DHT22;8010;53.986;12.106;2023-04-24T09:05:12;14.30;99.90
15819;DHT22;8010;53.986;12.106;2023-04-24T09:07:39;14.40;99.90
15819;DHT22;8010;53.986;12.106;2023-04-24T09:10:07;14.50;99.90
15819;DHT22;8010;53.986;12.106;2023-04-24T09:12:34;14.60;99.90
15819;DHT22;8010;53.986;12.106;2023-04-24T09:15:00;15.00;99.90
15819;DHT22;8010;53.986;12.106;2023-04-24T09:17:27;15.40;99.90
15819;DHT22;8010;53.986;12.106;2023-04-24T09:19:53;15.80;99.90
15819;DHT22;8010;53.986;12.106;2023-04-24T09:22:20;16.20;99.90
15819;DHT22;8010;53.986;12.106;2023-04-24T09:24:46;16.10;99.90
15819;DHT22;8010;53.986;12.106;2023-04-24T09:27:12;16.30;99.90
15819;DHT22;8010;53.986;12.106;2023-04-24T09:29:38;16.40;99.90
15819;DHT22;8010;53.986;12.106;2023-04-24T09:32:21;16.60;99.90
15819;DHT22;8010;53.986;12.106;2023-04-24T09:34:47;16.60;99.90
15819;DHT22;8010;53.986;12.106;2023-04-24T09:37:27;16.40;99.90
15819;DHT22;8010;53.986;12.106;2023-04-24T09:42:38;16.40;99.90
15819;DHT22;8010;53.986;12.106;2023-04-24T09:45:11;16.60;99.90
15819;DHT22;8010;53.986;12.106;2023-04-24T09:47:38;16.40;99.90
15819;DHT22;8010;53.986;12.106;2023-04-24T09:52:40;16.30;99.90
15819;DHT22;8010;53.986;12.106;2023-04-24T09:55:20;16.00;99.90
15819;DHT22;8010;53.986;12.106;2023-04-24T09:57:55;16.30;99.90
15819;DHT22;8010;53.986;12.106;2023-04-24T10:00:29;16.80;99.90
15819;DHT22;8010;53.986;12.106;2023-04-24T10:03:00;16.90;99.90
15819;DHT22;8010;53.986;12.106;2023-04-24T10:05:34;16.90;99.90
15819;DHT22;8010;53.986;12.106;2023-04-24T10:08:02;16.80;99.90
15819;DHT22;8010;53.986;12.106;2023-04-24T10:10:29;16.80;99.90
15819;DHT22;8010;53.986;12.106;2023-04-24T10:12:55;16.80;99.90
15819;DHT22;8010;53.986;12.106;2023-04-24T10:15:21;16.70;99.90
15819;DHT22;8010;53.986;12.106;2023-04-24T10:17:50;16.50;99.90
15819;DHT22;8010;53.986;12.106;2023-04-24T10:20:24;16.50;99.90
15819;DHT22;8010;53.986;12.106;2023-04-24T10:22:52;16.30;99.90
15819;DHT22;8010;53.986;12.106;2023-04-24T10:25:23;16.30;99.90
15819;DHT22;8010;53.986;12.106;2023-04-24T10:27:49;16.50;99.90
15819;DHT22;8010;53.986;12.106;2023-04-24T10:30:16;16.90;99.90
15819;DHT22;8010;53.986;12.106;2023-04-24T10:32:42;17.00;99.90
15819;DHT22;8010;53.986;12.106;2023-04-24T10:35:09;17.00;99.90
15819;DHT22;8010;53.986;12.106;2023-04-24T10:37:43;16.80;99.90
15819;DHT22;8010;53.986;12.106;2023-04-24T10:40:10;16.60;99.90
15819;DHT22;8010;53.986;12.106;2023-04-24T10:42:40;16.50;99.90
15819;DHT22;8010;53.986;12.106;2023-04-24T10:45:07;16.40;99.90
15819;DHT22;8010;53.986;12.106;2023-04-24T10:47:41;16.10;99.90
15819;DHT22;8010;53.986;12.106;2023-04-24T10:50:10;15.80;99.90
15819;DHT22;8010;53.986;12.106;2023-04-24T10:52:49;15.60;99.90
15819;DHT22;8010;53.986;12.106;2023-04-24T10:55:42;15.50;99.90
15819;DHT22;8010;53.986;12.106;2023-04-24T10:58:08;15.50;99.90
15819;DHT22;8010;53.986;12.106;2023-04-24T11:00:37;15.60;99.90
15819;DHT22;8010;53.986;12.106;2023-04-24T11:03:05;15.80;99.90
15819;DHT22;8010;53.986;12.106;2023-04-24T11:05:52;16.10;99.90
15819;DHT22;8010;53.986;12.106;2023-04-24T11:08:29;16.50;99.90
15819;DHT22;8010;53.986;12.106;2023-04-24T11:11:01;16.80;99.90
15819;DHT22;8010;53.986;12.106;2023-04-24T11:16:43;16.70;99.90
15819;DHT22;8010;53.986;12.106;2023-04-24T11:21:53;16.40;99.90
15819;DHT22;8010;53.986;12.106;2023-04-24T11:26:53;16.30;99.90
15819;DHT22;8010;53.986;12.106;2023-04-24T11:29:20;16.30;99.90
15819;DHT22;8010;53.986;12.106;2023-04-24T11:31:46;16.20;99.90
15819;DHT22;8010;53.986;12.106;2023-04-24T11:34:17;16.20;99.90
15819;DHT22;8010;53.986;12.106;2023-04-24T11:36:44;16.00;99.90
15819;DHT22;8010;53.986;12.106;2023-04-24T11:39:10;15.90;99.90
15819;DHT22;8010;53.986;12.106;2023-04-24T11:41:37;15.90;99.90
15819;DHT22;8010;53.986;12.106;2023-04-24T11:44:04;16.10;99.90
15819;DHT22;8010;53.986;12.106;2023-04-24T11:46:31;16.20;99.90
15819;DHT22;8010;53.986;12.106;2023-04-24T11:48:58;16.40;99.90
15819;DHT22;8010;53.986;12.106;2023-04-24T11:51:24;16.40;99.90
15819;DHT22;8010;53.986;12.106;2023-04-24T11:53:54;16.40;99.90
15819;DHT22;8010;53.986;12.106;2023-04-24T11:56:24;16.60;99.90
15819;DHT22;8010;53.986;12.106;2023-04-24T11:58:52;17.00;99.90
15819;DHT22;8010;53.986;12.106;2023-04-24T12:01:18;17.00;99.90
15819;DHT22;8010;53.986;12.106;2023-04-24T12:03:48;17.00;99.90
15819;DHT22;8010;53.986;12.106;2023-04-24T12:06:13;16.90;99.90
15819;DHT22;8010;53.986;12.106;2023-04-24T12:08:39;16.70;99.90
15819;DHT22;8010;53.986;12.106;2023-04-24T12:11:06;16.60;99.90
15819;DHT22;8010;53.986;12.106;2023-04-24T12:13:35;16.50;99.90
15819;DHT22;8010;53.986;12.106;2023-04-24T12:16:04;16.50;99.90
15819;DHT22;8010;53.986;12.106;2023-04-24T12:18:31;16.30;99.90
15819;DHT22;8010;53.986;12.106;2023-04-24T12:21:18;16.20;99.90
15819;DHT22;8010;53.986;12.106;2023-04-24T12:23:44;16.00;99.90
15819;DHT22;8010;53.986;12.106;2023-04-24T12:26:11;15.80;99.90
15819;DHT22;8010;53.986;12.106;2023-04-24T12:28:38;15.60;99.90
15819;DHT22;8010;53.986;12.106;2023-04-24T12:31:03;15.50;99.90
15819;DHT22;8010;53.986;12.106;2023-04-24T12:33:33;15.50;99.90
15819;DHT22;8010;53.986;12.106;2023-04-24T12:35:59;15.10;99.90
15819;DHT22;8010;53.986;12.106;2023-04-24T12:38:28;14.90;99.90
15819;DHT22;8010;53.986;12.106;2023-04-24T12:41:07;14.70;99.90
15819;DHT22;8010;53.986;12.106;2023-04-24T12:43:33;14.50;99.90
15819;DHT22;8010;53.986;12.106;2023-04-24T12:45:59;14.50;99.90
15819;DHT22;8010;53.986;12.106;2023-04-24T12:48:26;14.30;99.90
15819;DHT22;8010;53.986;12.106;2023-04-24T12:50:52;14.20;99.90
15819;DHT22;8010;53.986;12.106;2023-04-24T12:53:17;14.10;99.90
15819;DHT22;8010;53.986;12.106;2023-04-24T12:55:43;14.20;99.90
15819;DHT22;8010;53.986;12.106;2023-04-24T12:58:10;14.20;99.90
15819;DHT22;8010;53.986;12.106;2023-04-24T13:00:35;14.30;99.90
15819;DHT22;8010;53.986;12.106;2023-04-24T13:03:01;14.30;99.90
15819;DHT22;8010;53.986;12.106;2023-04-24T13:05:27;14.40;99.90
15819;DHT22;8010;53.986;12.106;2023-04-24T13:07:52;14.40;99.90
15819;DHT22;8010;53.986;12.106;2023-04-24T13:10:18;14.30;99.90
15819;DHT22;8010;53.986;12.106;2023-04-24T13:12:44;14.20;99.90
15819;DHT22;8010;53.986;12.106;2023-04-24T13:15:11;14.10;99.90
15819;DHT22;8010;53.986;12.106;2023-04-24T13:17:37;14.00;99.90
15819;DHT22;8010;53.986;12.106;2023-04-24T13:20:03;14.00;99.90
15819;DHT22;8010;53.986;12.106;2023-04-24T13:22:29;14.00;99.90
15819;DHT22;8010;53.986;12.106;2023-04-24T13:24:54;13.90;99.90
15819;DHT22;8010;53.986;12.106;2023-04-24T13:27:21;14.00;99.90
15819;DHT22;8010;53.986;12.106;2023-04-24T13:29:47;14.20;99.90
15819;DHT22;8010;53.986;12.106;2023-04-24T13:32:12;15.90;99.90
15819;DHT22;8010;53.986;12.106;2023-04-24T13:34:38;14.70;99.90
15819;DHT22;8010;53.986;12.106;2023-04-24T13:37:04;15.50;99.90
15819;DHT22;8010;53.986;12.106;2023-04-24T13:39:30;16.20;99.90
15819;DHT22;8010;53.986;12.106;2023-04-24T13:41:57;16.70;99.90
15819;DHT22;8010;53.986;12.106;2023-04-24T13:44:23;16.80;99.90
15819;DHT22;8010;53.986;12.106;2023-04-24T13:46:52;16.80;99.90
15819;DHT22;8010;53.986;12.106;2023-04-24T13:49:19;18.10;99.90
15819;DHT22;8010;53.986;12.106;2023-04-24T13:51:46;17.10;99.90
15819;DHT22;8010;53.986;12.106;2023-04-24T13:54:12;18.40;99.90
15819;DHT22;8010;53.986;12.106;2023-04-24T13:56:41;17.20;99.90
15819;DHT22;8010;53.986;12.106;2023-04-24T13:59:07;17.30;99.90
15819;DHT22;8010;53.986;12.106;2023-04-24T14:01:33;17.40;99.90
15819;DHT22;8010;53.986;12.106;2023-04-24T14:03:59;17.70;99.90
15819;DHT22;8010;53.986;12.106;2023-04-24T14:06:25;17.90;99.90
15819;DHT22;8010;53.986;12.106;2023-04-24T14:08:51;18.20;99.90
15819;DHT22;8010;53.986;12.106;2023-04-24T14:11:18;18.30;99.90
15819;DHT22;8010;53.986;12.106;2023-04-24T14:13:44;18.10;99.90
15819;DHT22;8010;53.986;12.106;2023-04-24T14:16:10;17.80;99.90
15819;DHT22;8010;53.986;12.106;2023-04-24T14:18:36;17.80;99.90
15819;DHT22;8010;53.986;12.106;2023-04-24T14:21:03;18.20;99.90
15819;DHT22;8010;53.986;12.106;2023-04-24T14:23:29;18.40;99.90
15819;DHT22;8010;53.986;12.106;2023-04-24T14:25:54;18.50;99.90
15819;DHT22;8010;53.986;12.106;2023-04-24T14:28:20;18.40;99.90
15819;DHT22;8010;53.986;12.106;2023-04-24T14:30:47;18.20;99.90
15819;DHT22;8010;53.986;12.106;2023-04-24T14:33:13;18.10;99.90
15819;DHT22;8010;53.986;12.106;2023-04-24T14:35:39;17.80;99.90
15819;DHT22;8010;53.986;12.106;2023-04-24T14:38:05;17.50;99.90
15819;DHT22;8010;53.986;12.106;2023-04-24T14:40:31;17.20;99.90
15819;DHT22;8010;53.986;12.106;2023-04-24T14:42:57;17.00;99.90
15819;DHT22;8010;53.986;12.106;2023-04-24T14:45:26;16.80;99.90
15819;DHT22;8010;53.986;12.106;2023-04-24T14:47:53;16.70;99.90
15819;DHT22;8010;53.986;12.106;2023-04-24T14:50:18;16.50;99.90
15819;DHT22;8010;53.986;12.106;2023-04-24T14:52:44;16.40;99.90
15819;DHT22;8010;53.986;12.106;2023-04-24T14:55:10;16.30;99.90
15819;DHT22;8010;53.986;12.106;2023-04-24T14:57:35;16.30;99.90
15819;DHT22;8010;53.986;12.106;2023-04-24T15:00:02;16.30;99.90
15819;DHT22;8010;53.986;12.106;2023-04-24T15:02:30;16.30;99.90
15819;DHT22;8010;53.986;12.106;2023-04-24T15:04:56;16.30;99.90
15819;DHT22;8010;53.986;12.106;2023-04-24T15:07:21;16.20;99.90
15819;DHT22;8010;53.986;12.106;2023-04-24T15:09:47;16.10;99.90
15819;DHT22;8010;53.986;12.106;2023-04-24T15:12:12;16.40;99.90
15819;DHT22;8010;53.986;12.106;2023-04-24T15:14:38;16.70;99.90
15819;DHT22;8010;53.986;12.106;2023-04-24T15:17:04;17.90;99.90
15819;DHT22;8010;53.986;12.106;2023-04-24T15:19:29;17.30;99.90
15819;DHT22;8010;53.986;12.106;2023-04-24T15:21:55;17.80;99.90
15819;DHT22;8010;53.986;12.106;2023-04-24T15:24:20;17.10;99.90
15819;DHT22;8010;53.986;12.106;2023-04-24T15:26:46;16.90;99.90
15819;DHT22;8010;53.986;12.106;2023-04-24T15:29:11;16.80;99.90
15819;DHT22;8010;53.986;12.106;2023-04-24T15:31:37;19.20;99.90
15819;DHT22;8010;53.986;12.106;2023-04-24T15:34:05;16.80;99.90
15819;DHT22;8010;53.986;12.106;2023-04-24T15:36:31;16.90;99.90
15819;DHT22;8010;53.986;12.106;2023-04-24T15:38:57;17.00;99.90
15819;DHT22;8010;53.986;12.106;2023-04-24T15:41:23;18.10;99.90